sensor_id;sensor_type;location;lat;lon;timestamp;P1;durP1;ratioP1;P2;durP2;ratioP2
71963;SDS011;59834;52.124;5.422;2022-08-23T00:01:04;7.83;;;4.00;;
71963;SDS011;59834;52.124;5.422;2022-08-23T00:04:11;8.75;;;3.78;;
71963;SDS011;59834;52.124;5.422;2022-08-23T00:07:00;9.07;;;4.95;;
71963;SDS011;59834;52.124;5.422;2022-08-23T00:09:45;5.82;;;4.30;;
71963;SDS011;59834;52.124;5.422;2022-08-23T00:12:38;8.13;;;4.47;;
71963;SDS011;59834;52.124;5.422;2022-08-23T00:37:54;7.55;;;4.65;;
71963;SDS011;59834;52.124;5.422;2022-08-23T00:41:04;7.45;;;3.95;;
71963;SDS011;59834;52.124;5.422;2022-08-23T00:47:24;9.00;;;4.90;;
71963;SDS011;59834;52.124;5.422;2022-08-23T00:55:33;4.22;;;3.83;;
71963;SDS011;59834;52.124;5.422;2022-08-23T00:58:00;4.15;;;3.72;;
71963;SDS011;59834;52.124;5.422;2022-08-23T01:00:39;11.05;;;3.78;;
71963;SDS011;59834;52.124;5.422;2022-08-23T01:03:07;5.00;;;4.43;;
71963;SDS011;59834;52.124;5.422;2022-08-23T01:08:33;7.93;;;4.68;;
71963;SDS011;59834;52.124;5.422;2022-08-23T01:11:02;9.65;;;4.47;;
71963;SDS011;59834;52.124;5.422;2022-08-23T01:14:00;8.70;;;5.35;;
71963;SDS011;59834;52.124;5.422;2022-08-23T01:16:49;8.03;;;3.83;;
71963;SDS011;59834;52.124;5.422;2022-08-23T01:22:01;7.10;;;4.72;;
71963;SDS011;59834;52.124;5.422;2022-08-23T01:24:32;5.57;;;4.47;;
71963;SDS011;59834;52.124;5.422;2022-08-23T01:27:20;8.95;;;4.65;;
71963;SDS011;59834;52.124;5.422;2022-08-23T01:29:46;13.77;;;4.03;;
71963;SDS011;59834;52.124;5.422;2022-08-23T01:32:13;9.63;;;4.55;;
71963;SDS011;59834;52.124;5.422;2022-08-23T01:34:40;6.75;;;4.07;;
71963;SDS011;59834;52.124;5.422;2022-08-23T01:37:11;5.97;;;4.55;;
71963;SDS011;59834;52.124;5.422;2022-08-23T01:39:38;6.05;;;4.70;;
71963;SDS011;59834;52.124;5.422;2022-08-23T01:42:05;7.57;;;4.27;;
71963;SDS011;59834;52.124;5.422;2022-08-23T01:44:33;7.32;;;4.90;;
71963;SDS011;59834;52.124;5.422;2022-08-23T01:47:00;9.27;;;5.28;;
71963;SDS011;59834;52.124;5.422;2022-08-23T01:49:27;8.80;;;4.65;;
71963;SDS011;59834;52.124;5.422;2022-08-23T01:51:53;5.72;;;3.63;;
71963;SDS011;59834;52.124;5.422;2022-08-23T01:54:20;4.97;;;3.73;;
71963;SDS011;59834;52.124;5.422;2022-08-23T01:56:47;8.25;;;4.75;;
71963;SDS011;59834;52.124;5.422;2022-08-23T01:59:14;5.63;;;4.10;;
71963;SDS011;59834;52.124;5.422;2022-08-23T02:01:41;9.45;;;4.38;;
71963;SDS011;59834;52.124;5.422;2022-08-23T02:04:07;6.50;;;4.65;;
71963;SDS011;59834;52.124;5.422;2022-08-23T02:06:34;11.30;;;6.20;;
71963;SDS011;59834;52.124;5.422;2022-08-23T02:09:01;7.43;;;4.65;;
71963;SDS011;59834;52.124;5.422;2022-08-23T02:11:34;10.00;;;4.78;;
71963;SDS011;59834;52.124;5.422;2022-08-23T02:14:06;7.35;;;4.38;;
71963;SDS011;59834;52.124;5.422;2022-08-23T02:16:36;6.55;;;4.65;;
71963;SDS011;59834;52.124;5.422;2022-08-23T02:19:07;9.07;;;4.87;;
71963;SDS011;59834;52.124;5.422;2022-08-23T02:21:35;5.95;;;4.53;;
71963;SDS011;59834;52.124;5.422;2022-08-23T02:24:08;7.75;;;5.18;;
71963;SDS011;59834;52.124;5.422;2022-08-23T02:26:41;6.30;;;4.57;;
71963;SDS011;59834;52.124;5.422;2022-08-23T02:29:12;9.20;;;5.03;;
71963;SDS011;59834;52.124;5.422;2022-08-23T02:31:40;9.70;;;4.20;;
71963;SDS011;59834;52.124;5.422;2022-08-23T02:34:06;5.57;;;4.20;;
71963;SDS011;59834;52.124;5.422;2022-08-23T02:36:33;7.60;;;4.97;;
71963;SDS011;59834;52.124;5.422;2022-08-23T02:39:00;5.30;;;4.85;;
71963;SDS011;59834;52.124;5.422;2022-08-23T02:41:26;8.98;;;4.57;;
71963;SDS011;59834;52.124;5.422;2022-08-23T02:43:53;7.90;;;4.40;;
71963;SDS011;59834;52.124;5.422;2022-08-23T02:46:20;6.15;;;4.80;;
71963;SDS011;59834;52.124;5.422;2022-08-23T02:48:47;8.90;;;4.93;;
71963;SDS011;59834;52.124;5.422;2022-08-23T02:51:14;7.25;;;5.43;;
71963;SDS011;59834;52.124;5.422;2022-08-23T02:53:42;7.50;;;5.18;;
71963;SDS011;59834;52.124;5.422;2022-08-23T02:56:11;9.73;;;5.07;;
71963;SDS011;59834;52.124;5.422;2022-08-23T02:58:47;4.90;;;4.38;;
71963;SDS011;59834;52.124;5.422;2022-08-23T03:01:30;8.95;;;4.57;;
71963;SDS011;59834;52.124;5.422;2022-08-23T03:03:58;5.57;;;4.75;;
71963;SDS011;59834;52.124;5.422;2022-08-23T03:06:25;7.68;;;4.75;;
71963;SDS011;59834;52.124;5.422;2022-08-23T03:08:53;5.67;;;4.30;;
71963;SDS011;59834;52.124;5.422;2022-08-23T03:11:20;7.72;;;4.55;;
71963;SDS011;59834;52.124;5.422;2022-08-23T03:13:48;6.43;;;4.50;;
71963;SDS011;59834;52.124;5.422;2022-08-23T03:16:15;4.88;;;4.45;;
71963;SDS011;59834;52.124;5.422;2022-08-23T03:18:43;5.30;;;4.05;;
71963;SDS011;59834;52.124;5.422;2022-08-23T03:21:10;8.03;;;4.70;;
71963;SDS011;59834;52.124;5.422;2022-08-23T03:23:37;6.05;;;4.60;;
71963;SDS011;59834;52.124;5.422;2022-08-23T03:26:05;7.25;;;4.40;;
71963;SDS011;59834;52.124;5.422;2022-08-23T03:28:35;6.68;;;3.90;;
71963;SDS011;59834;52.124;5.422;2022-08-23T03:31:03;7.70;;;4.07;;
71963;SDS011;59834;52.124;5.422;2022-08-23T03:33:31;6.67;;;3.90;;
71963;SDS011;59834;52.124;5.422;2022-08-23T03:35:59;5.63;;;4.90;;
71963;SDS011;59834;52.124;5.422;2022-08-23T03:38:28;7.93;;;4.45;;
71963;SDS011;59834;52.124;5.422;2022-08-23T03:40:54;9.90;;;5.05;;
71963;SDS011;59834;52.124;5.422;2022-08-23T03:43:21;6.57;;;4.25;;
71963;SDS011;59834;52.124;5.422;2022-08-23T03:45:47;7.03;;;4.57;;
71963;SDS011;59834;52.124;5.422;2022-08-23T03:48:14;8.23;;;4.75;;
71963;SDS011;59834;52.124;5.422;2022-08-23T03:50:41;6.85;;;4.43;;
71963;SDS011;59834;52.124;5.422;2022-08-23T03:53:08;5.88;;;4.57;;
71963;SDS011;59834;52.124;5.422;2022-08-23T03:55:38;10.00;;;4.55;;
71963;SDS011;59834;52.124;5.422;2022-08-23T03:58:08;7.93;;;4.80;;
71963;SDS011;59834;52.124;5.422;2022-08-23T04:00:35;9.35;;;4.53;;
71963;SDS011;59834;52.124;5.422;2022-08-23T04:03:02;5.57;;;4.75;;
71963;SDS011;59834;52.124;5.422;2022-08-23T04:05:28;9.68;;;4.90;;
71963;SDS011;59834;52.124;5.422;2022-08-23T04:07:55;7.70;;;4.88;;
71963;SDS011;59834;52.124;5.422;2022-08-23T04:10:21;6.47;;;4.20;;
71963;SDS011;59834;52.124;5.422;2022-08-23T04:12:48;7.78;;;4.30;;
71963;SDS011;59834;52.124;5.422;2022-08-23T04:15:15;9.90;;;4.22;;
71963;SDS011;59834;52.124;5.422;2022-08-23T04:17:41;7.50;;;4.22;;
71963;SDS011;59834;52.124;5.422;2022-08-23T04:20:08;6.18;;;4.55;;
71963;SDS011;59834;52.124;5.422;2022-08-23T04:22:34;7.67;;;4.67;;
71963;SDS011;59834;52.124;5.422;2022-08-23T04:25:01;7.97;;;4.70;;
71963;SDS011;59834;52.124;5.422;2022-08-23T04:27:28;5.43;;;4.68;;
71963;SDS011;59834;52.124;5.422;2022-08-23T04:29:55;8.38;;;4.80;;
71963;SDS011;59834;52.124;5.422;2022-08-23T04:32:21;6.28;;;4.53;;
71963;SDS011;59834;52.124;5.422;2022-08-23T04:34:53;5.60;;;4.53;;
71963;SDS011;59834;52.124;5.422;2022-08-23T04:37:20;8.88;;;4.60;;
71963;SDS011;59834;52.124;5.422;2022-08-23T04:39:46;5.43;;;4.93;;
71963;SDS011;59834;52.124;5.422;2022-08-23T04:42:31;6.60;;;4.55;;
71963;SDS011;59834;52.124;5.422;2022-08-23T04:44:58;6.63;;;4.80;;
71963;SDS011;59834;52.124;5.422;2022-08-23T04:47:26;7.67;;;4.50;;
71963;SDS011;59834;52.124;5.422;2022-08-23T04:49:53;7.22;;;4.75;;
71963;SDS011;59834;52.124;5.422;2022-08-23T04:52:19;7.20;;;4.85;;
71963;SDS011;59834;52.124;5.422;2022-08-23T04:54:46;11.60;;;8.40;;
71963;SDS011;59834;52.124;5.422;2022-08-23T04:57:12;16.05;;;7.15;;
71963;SDS011;59834;52.124;5.422;2022-08-23T04:59:40;8.67;;;5.90;;
71963;SDS011;59834;52.124;5.422;2022-08-23T05:02:08;6.13;;;5.00;;
71963;SDS011;59834;52.124;5.422;2022-08-23T05:04:35;7.75;;;5.70;;
71963;SDS011;59834;52.124;5.422;2022-08-23T05:07:01;7.20;;;5.80;;
71963;SDS011;59834;52.124;5.422;2022-08-23T05:09:29;9.07;;;5.47;;
71963;SDS011;59834;52.124;5.422;2022-08-23T05:11:55;7.80;;;5.80;;
71963;SDS011;59834;52.124;5.422;2022-08-23T05:14:22;8.32;;;5.43;;
71963;SDS011;59834;52.124;5.422;2022-08-23T05:16:48;14.13;;;5.50;;
71963;SDS011;59834;52.124;5.422;2022-08-23T05:19:15;6.88;;;5.50;;
71963;SDS011;59834;52.124;5.422;2022-08-23T05:21:41;14.15;;;5.70;;
71963;SDS011;59834;52.124;5.422;2022-08-23T05:24:08;8.47;;;5.50;;
71963;SDS011;59834;52.124;5.422;2022-08-23T05:26:39;11.30;;;6.40;;
71963;SDS011;59834;52.124;5.422;2022-08-23T05:29:06;7.60;;;5.90;;
71963;SDS011;59834;52.124;5.422;2022-08-23T05:31:32;8.20;;;5.07;;
71963;SDS011;59834;52.124;5.422;2022-08-23T05:33:59;9.70;;;4.82;;
71963;SDS011;59834;52.124;5.422;2022-08-23T05:36:26;5.40;;;4.90;;
71963;SDS011;59834;52.124;5.422;2022-08-23T05:38:52;10.13;;;5.95;;
71963;SDS011;59834;52.124;5.422;2022-08-23T05:41:19;9.20;;;4.95;;
71963;SDS011;59834;52.124;5.422;2022-08-23T05:43:46;14.18;;;5.88;;
71963;SDS011;59834;52.124;5.422;2022-08-23T05:46:15;6.10;;;5.25;;
71963;SDS011;59834;52.124;5.422;2022-08-23T05:48:46;7.03;;;5.03;;
71963;SDS011;59834;52.124;5.422;2022-08-23T05:51:17;14.32;;;5.57;;
71963;SDS011;59834;52.124;5.422;2022-08-23T05:53:45;10.70;;;6.88;;
71963;SDS011;59834;52.124;5.422;2022-08-23T05:58:50;6.28;;;4.93;;
71963;SDS011;59834;52.124;5.422;2022-08-23T06:01:24;9.80;;;5.80;;
71963;SDS011;59834;52.124;5.422;2022-08-23T06:03:51;10.95;;;6.53;;
71963;SDS011;59834;52.124;5.422;2022-08-23T06:06:18;7.55;;;5.57;;
71963;SDS011;59834;52.124;5.422;2022-08-23T06:08:45;7.55;;;5.32;;
71963;SDS011;59834;52.124;5.422;2022-08-23T06:11:17;8.50;;;5.63;;
71963;SDS011;59834;52.124;5.422;2022-08-23T06:13:47;6.20;;;5.17;;
71963;SDS011;59834;52.124;5.422;2022-08-23T06:16:17;6.68;;;5.35;;
71963;SDS011;59834;52.124;5.422;2022-08-23T06:18:45;10.40;;;5.90;;
71963;SDS011;59834;52.124;5.422;2022-08-23T06:21:13;8.25;;;6.30;;
71963;SDS011;59834;52.124;5.422;2022-08-23T06:23:41;8.27;;;6.18;;
71963;SDS011;59834;52.124;5.422;2022-08-23T06:26:08;9.27;;;6.30;;
71963;SDS011;59834;52.124;5.422;2022-08-23T06:28:36;7.78;;;6.65;;
71963;SDS011;59834;52.124;5.422;2022-08-23T06:31:15;8.30;;;6.03;;
71963;SDS011;59834;52.124;5.422;2022-08-23T06:34:02;11.15;;;7.05;;
71963;SDS011;59834;52.124;5.422;2022-08-23T06:36:29;14.10;;;6.85;;
71963;SDS011;59834;52.124;5.422;2022-08-23T06:38:56;10.70;;;6.87;;
71963;SDS011;59834;52.124;5.422;2022-08-23T06:41:25;9.77;;;6.47;;
71963;SDS011;59834;52.124;5.422;2022-08-23T06:43:53;8.18;;;6.53;;
71963;SDS011;59834;52.124;5.422;2022-08-23T06:46:21;12.98;;;7.15;;
71963;SDS011;59834;52.124;5.422;2022-08-23T06:48:53;11.37;;;7.23;;
71963;SDS011;59834;52.124;5.422;2022-08-23T06:51:21;12.65;;;7.97;;
71963;SDS011;59834;52.124;5.422;2022-08-23T06:54:10;10.30;;;7.07;;
71963;SDS011;59834;52.124;5.422;2022-08-23T06:56:41;14.27;;;8.15;;
71963;SDS011;59834;52.124;5.422;2022-08-23T06:59:09;12.80;;;6.93;;
71963;SDS011;59834;52.124;5.422;2022-08-23T07:01:47;8.20;;;7.43;;
71963;SDS011;59834;52.124;5.422;2022-08-23T07:04:19;12.00;;;7.82;;
71963;SDS011;59834;52.124;5.422;2022-08-23T07:06:47;11.80;;;7.47;;
71963;SDS011;59834;52.124;5.422;2022-08-23T07:09:20;12.63;;;8.70;;
71963;SDS011;59834;52.124;5.422;2022-08-23T07:11:48;10.50;;;7.60;;
71963;SDS011;59834;52.124;5.422;2022-08-23T07:14:16;13.00;;;7.80;;
71963;SDS011;59834;52.124;5.422;2022-08-23T07:16:47;9.25;;;7.50;;
71963;SDS011;59834;52.124;5.422;2022-08-23T07:19:16;8.70;;;7.55;;
71963;SDS011;59834;52.124;5.422;2022-08-23T07:21:45;10.80;;;8.77;;
71963;SDS011;59834;52.124;5.422;2022-08-23T07:24:14;11.13;;;7.60;;
71963;SDS011;59834;52.124;5.422;2022-08-23T07:26:43;7.87;;;6.70;;
71963;SDS011;59834;52.124;5.422;2022-08-23T07:29:14;17.33;;;8.20;;
71963;SDS011;59834;52.124;5.422;2022-08-23T07:31:43;13.15;;;9.98;;
71963;SDS011;59834;52.124;5.422;2022-08-23T07:34:16;14.43;;;8.50;;
71963;SDS011;59834;52.124;5.422;2022-08-23T07:36:51;15.50;;;8.18;;
71963;SDS011;59834;52.124;5.422;2022-08-23T07:39:21;12.97;;;9.37;;
71963;SDS011;59834;52.124;5.422;2022-08-23T07:41:49;11.00;;;8.32;;
71963;SDS011;59834;52.124;5.422;2022-08-23T07:44:16;12.82;;;8.73;;
71963;SDS011;59834;52.124;5.422;2022-08-23T07:46:44;10.38;;;9.27;;
71963;SDS011;59834;52.124;5.422;2022-08-23T07:49:12;16.45;;;9.23;;
71963;SDS011;59834;52.124;5.422;2022-08-23T07:51:40;14.43;;;9.33;;
71963;SDS011;59834;52.124;5.422;2022-08-23T07:54:10;12.30;;;8.30;;
71963;SDS011;59834;52.124;5.422;2022-08-23T07:56:38;12.77;;;9.55;;
71963;SDS011;59834;52.124;5.422;2022-08-23T07:59:05;9.75;;;8.75;;
71963;SDS011;59834;52.124;5.422;2022-08-23T08:01:33;17.42;;;9.07;;
71963;SDS011;59834;52.124;5.422;2022-08-23T08:04:02;15.37;;;8.60;;
71963;SDS011;59834;52.124;5.422;2022-08-23T08:06:43;21.23;;;9.55;;
71963;SDS011;59834;52.124;5.422;2022-08-23T08:09:32;15.20;;;8.65;;
71963;SDS011;59834;52.124;5.422;2022-08-23T08:12:06;15.85;;;8.85;;
71963;SDS011;59834;52.124;5.422;2022-08-23T08:14:34;12.60;;;8.00;;
71963;SDS011;59834;52.124;5.422;2022-08-23T08:17:02;19.43;;;9.57;;
71963;SDS011;59834;52.124;5.422;2022-08-23T08:19:29;15.00;;;8.35;;
71963;SDS011;59834;52.124;5.422;2022-08-23T08:21:56;15.10;;;7.95;;
71963;SDS011;59834;52.124;5.422;2022-08-23T08:24:22;15.05;;;7.63;;
71963;SDS011;59834;52.124;5.422;2022-08-23T08:26:49;11.90;;;7.43;;
71963;SDS011;59834;52.124;5.422;2022-08-23T08:29:16;11.23;;;6.80;;
71963;SDS011;59834;52.124;5.422;2022-08-23T08:31:43;13.88;;;7.80;;
71963;SDS011;59834;52.124;5.422;2022-08-23T08:34:17;11.90;;;7.50;;
71963;SDS011;59834;52.124;5.422;2022-08-23T08:36:46;13.32;;;7.28;;
71963;SDS011;59834;52.124;5.422;2022-08-23T08:39:18;9.25;;;6.82;;
71963;SDS011;59834;52.124;5.422;2022-08-23T08:41:54;18.50;;;7.67;;
71963;SDS011;59834;52.124;5.422;2022-08-23T08:47:27;18.45;;;7.75;;
71963;SDS011;59834;52.124;5.422;2022-08-23T08:55:48;13.10;;;7.00;;
71963;SDS011;59834;52.124;5.422;2022-08-23T08:58:30;15.38;;;7.45;;
71963;SDS011;59834;52.124;5.422;2022-08-23T09:01:05;12.23;;;6.70;;
71963;SDS011;59834;52.124;5.422;2022-08-23T09:03:33;17.13;;;6.72;;
71963;SDS011;59834;52.124;5.422;2022-08-23T09:06:14;12.52;;;6.82;;
71963;SDS011;59834;52.124;5.422;2022-08-23T09:08:49;11.53;;;6.37;;
71963;SDS011;59834;52.124;5.422;2022-08-23T09:11:43;13.68;;;6.82;;
71963;SDS011;59834;52.124;5.422;2022-08-23T09:17:00;11.70;;;6.72;;
71963;SDS011;59834;52.124;5.422;2022-08-23T09:19:32;12.25;;;6.63;;
71963;SDS011;59834;52.124;5.422;2022-08-23T09:22:08;9.13;;;5.70;;
71963;SDS011;59834;52.124;5.422;2022-08-23T09:24:39;7.22;;;6.05;;
71963;SDS011;59834;52.124;5.422;2022-08-23T09:27:09;9.07;;;5.57;;
71963;SDS011;59834;52.124;5.422;2022-08-23T09:29:38;7.35;;;5.07;;
71963;SDS011;59834;52.124;5.422;2022-08-23T09:32:37;7.70;;;4.47;;
71963;SDS011;59834;52.124;5.422;2022-08-23T09:40:18;6.75;;;4.50;;
71963;SDS011;59834;52.124;5.422;2022-08-23T09:43:05;6.30;;;4.40;;
71963;SDS011;59834;52.124;5.422;2022-08-23T09:56:54;7.43;;;4.07;;
71963;SDS011;59834;52.124;5.422;2022-08-23T10:01:53;7.80;;;3.70;;
71963;SDS011;59834;52.124;5.422;2022-08-23T10:06:50;7.15;;;4.00;;
71963;SDS011;59834;52.124;5.422;2022-08-23T10:09:22;12.82;;;4.53;;
71963;SDS011;59834;52.124;5.422;2022-08-23T10:11:54;8.70;;;4.32;;
71963;SDS011;59834;52.124;5.422;2022-08-23T10:14:23;8.98;;;3.45;;
71963;SDS011;59834;52.124;5.422;2022-08-23T10:19:32;11.23;;;3.03;;
71963;SDS011;59834;52.124;5.422;2022-08-23T10:22:23;8.23;;;3.70;;
71963;SDS011;59834;52.124;5.422;2022-08-23T10:24:54;6.85;;;3.33;;
71963;SDS011;59834;52.124;5.422;2022-08-23T10:30:56;3.10;;;1.53;;
71963;SDS011;59834;52.124;5.422;2022-08-23T10:33:48;4.85;;;1.77;;
71963;SDS011;59834;52.124;5.422;2022-08-23T10:39:11;5.47;;;2.00;;
71963;SDS011;59834;52.124;5.422;2022-08-23T10:45:16;5.87;;;1.20;;
71963;SDS011;59834;52.124;5.422;2022-08-23T10:50:24;4.40;;;1.45;;
71963;SDS011;59834;52.124;5.422;2022-08-23T10:52:54;3.65;;;1.58;;
71963;SDS011;59834;52.124;5.422;2022-08-23T10:55:29;5.78;;;1.67;;
71963;SDS011;59834;52.124;5.422;2022-08-23T10:58:22;5.27;;;0.97;;
71963;SDS011;59834;52.124;5.422;2022-08-23T11:00:54;6.28;;;1.80;;
71963;SDS011;59834;52.124;5.422;2022-08-23T11:09:07;4.10;;;1.10;;
71963;SDS011;59834;52.124;5.422;2022-08-23T11:15:03;3.85;;;1.02;;
71963;SDS011;59834;52.124;5.422;2022-08-23T11:17:40;4.43;;;1.23;;
71963;SDS011;59834;52.124;5.422;2022-08-23T11:23:15;2.55;;;0.85;;
71963;SDS011;59834;52.124;5.422;2022-08-23T11:26:00;5.73;;;1.60;;
71963;SDS011;59834;52.124;5.422;2022-08-23T11:28:51;5.95;;;1.40;;
71963;SDS011;59834;52.124;5.422;2022-08-23T11:34:00;8.15;;;1.77;;
71963;SDS011;59834;52.124;5.422;2022-08-23T11:36:30;2.88;;;1.40;;
71963;SDS011;59834;52.124;5.422;2022-08-23T11:38:59;5.50;;;1.50;;
71963;SDS011;59834;52.124;5.422;2022-08-23T11:42:09;3.80;;;1.77;;
71963;SDS011;59834;52.124;5.422;2022-08-23T11:44:36;6.68;;;1.40;;
71963;SDS011;59834;52.124;5.422;2022-08-23T11:47:08;3.35;;;1.45;;
71963;SDS011;59834;52.124;5.422;2022-08-23T11:49:49;3.97;;;1.25;;
71963;SDS011;59834;52.124;5.422;2022-08-23T11:59:02;5.53;;;1.50;;
71963;SDS011;59834;52.124;5.422;2022-08-23T12:11:20;4.00;;;1.80;;
71963;SDS011;59834;52.124;5.422;2022-08-23T12:14:31;10.07;;;2.45;;
71963;SDS011;59834;52.124;5.422;2022-08-23T12:25:38;4.30;;;1.07;;
71963;SDS011;59834;52.124;5.422;2022-08-23T12:28:09;3.38;;;1.00;;
71963;SDS011;59834;52.124;5.422;2022-08-23T12:33:58;5.07;;;1.15;;
71963;SDS011;59834;52.124;5.422;2022-08-23T12:39:21;5.40;;;1.23;;
71963;SDS011;59834;52.124;5.422;2022-08-23T12:44:45;4.57;;;1.05;;
71963;SDS011;59834;52.124;5.422;2022-08-23T12:47:24;5.90;;;1.15;;
71963;SDS011;59834;52.124;5.422;2022-08-23T12:50:06;3.38;;;1.40;;
71963;SDS011;59834;52.124;5.422;2022-08-23T12:53:09;4.53;;;1.63;;
71963;SDS011;59834;52.124;5.422;2022-08-23T12:55:44;6.00;;;1.27;;
71963;SDS011;59834;52.124;5.422;2022-08-23T12:58:16;4.25;;;1.08;;
71963;SDS011;59834;52.124;5.422;2022-08-23T13:01:04;7.07;;;1.20;;
71963;SDS011;59834;52.124;5.422;2022-08-23T13:03:40;6.32;;;1.08;;
71963;SDS011;59834;52.124;5.422;2022-08-23T13:06:12;3.60;;;1.20;;
71963;SDS011;59834;52.124;5.422;2022-08-23T13:11:25;2.92;;;0.93;;
71963;SDS011;59834;52.124;5.422;2022-08-23T13:13:56;5.18;;;1.20;;
71963;SDS011;59834;52.124;5.422;2022-08-23T13:16:24;4.05;;;0.95;;
71963;SDS011;59834;52.124;5.422;2022-08-23T13:19:24;4.73;;;1.17;;
71963;SDS011;59834;52.124;5.422;2022-08-23T13:22:12;4.80;;;1.33;;
71963;SDS011;59834;52.124;5.422;2022-08-23T13:28:33;5.47;;;1.40;;
71963;SDS011;59834;52.124;5.422;2022-08-23T13:30:59;5.65;;;1.20;;
71963;SDS011;59834;52.124;5.422;2022-08-23T13:33:28;2.50;;;1.23;;
71963;SDS011;59834;52.124;5.422;2022-08-23T13:36:15;12.10;;;1.45;;
71963;SDS011;59834;52.124;5.422;2022-08-23T13:38:46;5.60;;;1.40;;
71963;SDS011;59834;52.124;5.422;2022-08-23T13:41:33;5.07;;;1.33;;
71963;SDS011;59834;52.124;5.422;2022-08-23T13:44:05;6.32;;;1.45;;
71963;SDS011;59834;52.124;5.422;2022-08-23T13:46:33;5.47;;;1.27;;
71963;SDS011;59834;52.124;5.422;2022-08-23T13:49:12;4.72;;;1.25;;
71963;SDS011;59834;52.124;5.422;2022-08-23T13:52:04;3.70;;;1.42;;
71963;SDS011;59834;52.124;5.422;2022-08-23T13:54:54;4.90;;;1.63;;
71963;SDS011;59834;52.124;5.422;2022-08-23T13:57:20;3.03;;;1.30;;
71963;SDS011;59834;52.124;5.422;2022-08-23T13:59:54;8.13;;;1.40;;
71963;SDS011;59834;52.124;5.422;2022-08-23T14:02:21;4.60;;;1.30;;
71963;SDS011;59834;52.124;5.422;2022-08-23T14:04:49;2.35;;;1.30;;
71963;SDS011;59834;52.124;5.422;2022-08-23T14:07:16;4.22;;;1.00;;
71963;SDS011;59834;52.124;5.422;2022-08-23T14:09:43;4.65;;;1.15;;
71963;SDS011;59834;52.124;5.422;2022-08-23T14:12:16;4.47;;;1.20;;
71963;SDS011;59834;52.124;5.422;2022-08-23T14:14:59;4.30;;;1.27;;
71963;SDS011;59834;52.124;5.422;2022-08-23T14:17:27;2.67;;;1.33;;
71963;SDS011;59834;52.124;5.422;2022-08-23T14:19:56;6.82;;;1.30;;
71963;SDS011;59834;52.124;5.422;2022-08-23T14:22:44;3.60;;;1.08;;
71963;SDS011;59834;52.124;5.422;2022-08-23T14:25:16;4.13;;;1.00;;
71963;SDS011;59834;52.124;5.422;2022-08-23T14:28:10;3.17;;;1.00;;
71963;SDS011;59834;52.124;5.422;2022-08-23T14:30:35;2.38;;;1.00;;
71963;SDS011;59834;52.124;5.422;2022-08-23T14:33:03;6.50;;;1.30;;
71963;SDS011;59834;52.124;5.422;2022-08-23T14:35:34;2.83;;;0.85;;
71963;SDS011;59834;52.124;5.422;2022-08-23T14:38:18;1.80;;;0.90;;
71963;SDS011;59834;52.124;5.422;2022-08-23T14:40:53;1.50;;;1.23;;
71963;SDS011;59834;52.124;5.422;2022-08-23T14:43:23;4.55;;;0.90;;
71963;SDS011;59834;52.124;5.422;2022-08-23T14:45:52;1.80;;;0.88;;
71963;SDS011;59834;52.124;5.422;2022-08-23T14:48:25;3.00;;;0.80;;
71963;SDS011;59834;52.124;5.422;2022-08-23T14:50:53;2.63;;;0.90;;
71963;SDS011;59834;52.124;5.422;2022-08-23T14:53:39;3.05;;;0.90;;
71963;SDS011;59834;52.124;5.422;2022-08-23T14:56:26;5.03;;;0.95;;
71963;SDS011;59834;52.124;5.422;2022-08-23T14:58:53;3.20;;;1.10;;
71963;SDS011;59834;52.124;5.422;2022-08-23T15:01:19;2.13;;;0.90;;
71963;SDS011;59834;52.124;5.422;2022-08-23T15:03:47;3.23;;;0.90;;
71963;SDS011;59834;52.124;5.422;2022-08-23T15:06:15;2.38;;;1.05;;
71963;SDS011;59834;52.124;5.422;2022-08-23T15:08:43;2.47;;;0.88;;
71963;SDS011;59834;52.124;5.422;2022-08-23T15:11:11;4.53;;;1.00;;
71963;SDS011;59834;52.124;5.422;2022-08-23T15:13:58;2.80;;;0.80;;
71963;SDS011;59834;52.124;5.422;2022-08-23T15:16:25;3.27;;;0.90;;
71963;SDS011;59834;52.124;5.422;2022-08-23T15:18:52;1.73;;;0.63;;
71963;SDS011;59834;52.124;5.422;2022-08-23T15:21:20;2.13;;;0.95;;
71963;SDS011;59834;52.124;5.422;2022-08-23T15:23:47;3.38;;;0.73;;
71963;SDS011;59834;52.124;5.422;2022-08-23T15:26:18;2.13;;;0.65;;
71963;SDS011;59834;52.124;5.422;2022-08-23T15:28:46;2.00;;;0.63;;
71963;SDS011;59834;52.124;5.422;2022-08-23T15:31:14;3.40;;;0.77;;
71963;SDS011;59834;52.124;5.422;2022-08-23T15:33:44;1.50;;;0.70;;
71963;SDS011;59834;52.124;5.422;2022-08-23T15:36:11;2.33;;;0.65;;
71963;SDS011;59834;52.124;5.422;2022-08-23T15:38:41;1.70;;;1.05;;
71963;SDS011;59834;52.124;5.422;2022-08-23T15:41:09;2.63;;;0.70;;
71963;SDS011;59834;52.124;5.422;2022-08-23T15:43:36;1.60;;;0.70;;
71963;SDS011;59834;52.124;5.422;2022-08-23T15:46:09;2.33;;;0.80;;
71963;SDS011;59834;52.124;5.422;2022-08-23T15:48:43;4.78;;;1.05;;
71963;SDS011;59834;52.124;5.422;2022-08-23T15:51:15;2.97;;;1.30;;
71963;SDS011;59834;52.124;5.422;2022-08-23T15:53:43;2.77;;;0.90;;
71963;SDS011;59834;52.124;5.422;2022-08-23T15:56:12;2.58;;;1.00;;
71963;SDS011;59834;52.124;5.422;2022-08-23T15:58:46;2.35;;;0.80;;
71963;SDS011;59834;52.124;5.422;2022-08-23T16:01:14;1.92;;;0.82;;
71963;SDS011;59834;52.124;5.422;2022-08-23T16:03:48;3.40;;;1.27;;
71963;SDS011;59834;52.124;5.422;2022-08-23T16:06:14;4.83;;;0.80;;
71963;SDS011;59834;52.124;5.422;2022-08-23T16:08:44;5.60;;;0.80;;
71963;SDS011;59834;52.124;5.422;2022-08-23T16:11:15;6.10;;;0.95;;
71963;SDS011;59834;52.124;5.422;2022-08-23T16:13:42;1.48;;;0.63;;
71963;SDS011;59834;52.124;5.422;2022-08-23T16:19:13;3.80;;;0.80;;
71963;SDS011;59834;52.124;5.422;2022-08-23T16:21:47;2.65;;;0.98;;
71963;SDS011;59834;52.124;5.422;2022-08-23T16:24:23;2.83;;;1.05;;
71963;SDS011;59834;52.124;5.422;2022-08-23T16:26:50;5.55;;;0.93;;
71963;SDS011;59834;52.124;5.422;2022-08-23T16:29:18;1.70;;;0.77;;
71963;SDS011;59834;52.124;5.422;2022-08-23T16:31:52;2.17;;;0.73;;
71963;SDS011;59834;52.124;5.422;2022-08-23T16:34:21;3.75;;;0.82;;
71963;SDS011;59834;52.124;5.422;2022-08-23T16:36:50;3.05;;;1.17;;
71963;SDS011;59834;52.124;5.422;2022-08-23T16:39:21;5.55;;;1.17;;
71963;SDS011;59834;52.124;5.422;2022-08-23T16:41:48;3.65;;;1.35;;
71963;SDS011;59834;52.124;5.422;2022-08-23T16:44:18;2.90;;;1.20;;
71963;SDS011;59834;52.124;5.422;2022-08-23T16:46:45;8.73;;;1.90;;
71963;SDS011;59834;52.124;5.422;2022-08-23T16:49:13;4.72;;;1.17;;
71963;SDS011;59834;52.124;5.422;2022-08-23T16:51:41;5.85;;;1.40;;
71963;SDS011;59834;52.124;5.422;2022-08-23T16:54:09;3.83;;;1.75;;
71963;SDS011;59834;52.124;5.422;2022-08-23T16:56:37;3.07;;;2.17;;
71963;SDS011;59834;52.124;5.422;2022-08-23T16:59:05;5.97;;;1.65;;
71963;SDS011;59834;52.124;5.422;2022-08-23T17:01:50;2.90;;;1.83;;
71963;SDS011;59834;52.124;5.422;2022-08-23T17:04:19;10.15;;;1.90;;
71963;SDS011;59834;52.124;5.422;2022-08-23T17:06:46;5.88;;;1.83;;
71963;SDS011;59834;52.124;5.422;2022-08-23T17:09:13;9.73;;;1.83;;
71963;SDS011;59834;52.124;5.422;2022-08-23T17:11:39;3.90;;;1.60;;
71963;SDS011;59834;52.124;5.422;2022-08-23T17:14:08;5.05;;;1.98;;
71963;SDS011;59834;52.124;5.422;2022-08-23T17:16:37;3.10;;;1.65;;
71963;SDS011;59834;52.124;5.422;2022-08-23T17:19:04;2.85;;;1.27;;
71963;SDS011;59834;52.124;5.422;2022-08-23T17:21:31;4.73;;;1.63;;
71963;SDS011;59834;52.124;5.422;2022-08-23T17:23:57;3.05;;;1.33;;
71963;SDS011;59834;52.124;5.422;2022-08-23T17:26:24;4.03;;;1.42;;
71963;SDS011;59834;52.124;5.422;2022-08-23T17:28:50;4.10;;;1.42;;
71963;SDS011;59834;52.124;5.422;2022-08-23T17:31:17;6.10;;;1.80;;
71963;SDS011;59834;52.124;5.422;2022-08-23T17:33:44;3.30;;;1.40;;
71963;SDS011;59834;52.124;5.422;2022-08-23T17:36:25;4.53;;;1.60;;
71963;SDS011;59834;52.124;5.422;2022-08-23T17:38:55;4.72;;;1.45;;